sensor_id;sensor_type;location;lat;lon;timestamp;P1;durP1;ratioP1;P2;durP2;ratioP2
2544;SDS011;36212;48.838;9.142;2024-02-28T00:02:10;20.55;;;17.35;;
2544;SDS011;36212;48.838;9.142;2024-02-28T00:04:42;22.90;;;19.08;;
2544;SDS011;36212;48.838;9.142;2024-02-28T00:07:15;20.23;;;17.55;;
2544;SDS011;36212;48.838;9.142;2024-02-28T00:09:48;21.20;;;16.73;;
2544;SDS011;36212;48.838;9.142;2024-02-28T00:12:21;18.75;;;16.75;;
2544;SDS011;36212;48.838;9.142;2024-02-28T00:14:55;22.23;;;18.05;;
2544;SDS011;36212;48.838;9.142;2024-02-28T00:17:27;19.33;;;16.95;;
2544;SDS011;36212;48.838;9.142;2024-02-28T00:20:00;20.00;;;17.60;;
2544;SDS011;36212;48.838;9.142;2024-02-28T00:22:32;18.35;;;16.38;;
2544;SDS011;36212;48.838;9.142;2024-02-28T00:25:06;20.60;;;17.65;;
2544;SDS011;36212;48.838;9.142;2024-02-28T00:27:41;20.65;;;18.27;;
2544;SDS011;36212;48.838;9.142;2024-02-28T00:30:13;20.13;;;17.92;;
2544;SDS011;36212;48.838;9.142;2024-02-28T00:32:47;21.23;;;18.20;;
2544;SDS011;36212;48.838;9.142;2024-02-28T00:35:19;21.75;;;18.42;;
2544;SDS011;36212;48.838;9.142;2024-02-28T00:37:51;20.58;;;17.90;;
2544;SDS011;36212;48.838;9.142;2024-02-28T00:40:23;23.35;;;19.10;;
2544;SDS011;36212;48.838;9.142;2024-02-28T00:42:57;19.00;;;17.02;;
2544;SDS011;36212;48.838;9.142;2024-02-28T00:45:29;21.23;;;18.60;;
2544;SDS011;36212;48.838;9.142;2024-02-28T00:48:02;20.40;;;17.08;;
2544;SDS011;36212;48.838;9.142;2024-02-28T00:50:35;19.75;;;17.23;;
2544;SDS011;36212;48.838;9.142;2024-02-28T00:53:07;24.02;;;18.23;;
2544;SDS011;36212;48.838;9.142;2024-02-28T00:55:39;23.10;;;19.90;;
2544;SDS011;36212;48.838;9.142;2024-02-28T00:58:12;21.10;;;17.77;;
2544;SDS011;36212;48.838;9.142;2024-02-28T01:00:45;21.85;;;18.23;;
2544;SDS011;36212;48.838;9.142;2024-02-28T01:03:18;21.60;;;18.38;;
2544;SDS011;36212;48.838;9.142;2024-02-28T01:05:51;21.15;;;18.70;;
2544;SDS011;36212;48.838;9.142;2024-02-28T01:08:23;23.60;;;20.30;;
2544;SDS011;36212;48.838;9.142;2024-02-28T01:10:55;22.67;;;18.75;;
2544;SDS011;36212;48.838;9.142;2024-02-28T01:13:29;21.30;;;16.90;;
2544;SDS011;36212;48.838;9.142;2024-02-28T01:16:01;21.63;;;19.25;;
2544;SDS011;36212;48.838;9.142;2024-02-28T01:18:33;24.35;;;17.67;;
2544;SDS011;36212;48.838;9.142;2024-02-28T01:21:06;25.83;;;19.20;;
2544;SDS011;36212;48.838;9.142;2024-02-28T01:23:38;23.75;;;17.80;;
2544;SDS011;36212;48.838;9.142;2024-02-28T01:26:11;23.48;;;18.88;;
2544;SDS011;36212;48.838;9.142;2024-02-28T01:28:43;25.63;;;19.80;;
2544;SDS011;36212;48.838;9.142;2024-02-28T01:31:16;24.55;;;18.60;;
2544;SDS011;36212;48.838;9.142;2024-02-28T01:33:48;22.58;;;19.25;;
2544;SDS011;36212;48.838;9.142;2024-02-28T01:36:20;22.48;;;18.45;;
2544;SDS011;36212;48.838;9.142;2024-02-28T01:38:53;21.27;;;19.00;;
2544;SDS011;36212;48.838;9.142;2024-02-28T01:41:26;19.70;;;17.60;;
2544;SDS011;36212;48.838;9.142;2024-02-28T01:43:58;22.90;;;19.52;;
2544;SDS011;36212;48.838;9.142;2024-02-28T01:46:30;19.65;;;17.55;;
2544;SDS011;36212;48.838;9.142;2024-02-28T01:49:03;23.67;;;17.80;;
2544;SDS011;36212;48.838;9.142;2024-02-28T01:51:36;22.65;;;18.83;;
2544;SDS011;36212;48.838;9.142;2024-02-28T01:54:08;19.17;;;17.00;;
2544;SDS011;36212;48.838;9.142;2024-02-28T01:56:41;20.42;;;18.23;;
2544;SDS011;36212;48.838;9.142;2024-02-28T01:59:15;20.33;;;17.83;;
2544;SDS011;36212;48.838;9.142;2024-02-28T02:01:49;19.50;;;15.65;;
2544;SDS011;36212;48.838;9.142;2024-02-28T02:04:22;18.30;;;16.10;;
2544;SDS011;36212;48.838;9.142;2024-02-28T02:06:54;22.25;;;17.63;;
2544;SDS011;36212;48.838;9.142;2024-02-28T02:09:30;25.10;;;18.67;;
2544;SDS011;36212;48.838;9.142;2024-02-28T02:12:04;19.00;;;16.70;;
2544;SDS011;36212;48.838;9.142;2024-02-28T02:14:37;19.77;;;17.10;;
2544;SDS011;36212;48.838;9.142;2024-02-28T02:17:09;22.70;;;18.55;;
2544;SDS011;36212;48.838;9.142;2024-02-28T02:19:41;22.02;;;16.20;;
2544;SDS011;36212;48.838;9.142;2024-02-28T02:22:14;19.45;;;17.48;;
2544;SDS011;36212;48.838;9.142;2024-02-28T02:24:48;20.15;;;17.90;;
2544;SDS011;36212;48.838;9.142;2024-02-28T02:27:20;21.42;;;17.50;;
2544;SDS011;36212;48.838;9.142;2024-02-28T02:29:56;22.92;;;16.85;;
2544;SDS011;36212;48.838;9.142;2024-02-28T02:32:28;23.63;;;18.35;;
2544;SDS011;36212;48.838;9.142;2024-02-28T02:35:00;20.77;;;16.95;;
2544;SDS011;36212;48.838;9.142;2024-02-28T02:37:33;20.83;;;17.85;;
2544;SDS011;36212;48.838;9.142;2024-02-28T02:40:06;19.85;;;16.80;;
2544;SDS011;36212;48.838;9.142;2024-02-28T02:42:41;22.70;;;18.20;;
2544;SDS011;36212;48.838;9.142;2024-02-28T02:45:13;20.20;;;15.93;;
2544;SDS011;36212;48.838;9.142;2024-02-28T02:47:46;22.38;;;17.95;;
2544;SDS011;36212;48.838;9.142;2024-02-28T02:50:18;21.98;;;17.38;;
2544;SDS011;36212;48.838;9.142;2024-02-28T02:52:50;24.95;;;20.45;;
2544;SDS011;36212;48.838;9.142;2024-02-28T02:55:23;19.90;;;17.55;;
2544;SDS011;36212;48.838;9.142;2024-02-28T02:57:55;22.73;;;17.25;;
2544;SDS011;36212;48.838;9.142;2024-02-28T03:00:27;21.55;;;17.08;;
2544;SDS011;36212;48.838;9.142;2024-02-28T03:03:00;22.10;;;18.50;;
2544;SDS011;36212;48.838;9.142;2024-02-28T03:05:32;21.52;;;19.02;;
2544;SDS011;36212;48.838;9.142;2024-02-28T03:08:04;20.80;;;18.27;;
2544;SDS011;36212;48.838;9.142;2024-02-28T03:10:37;19.50;;;17.27;;
2544;SDS011;36212;48.838;9.142;2024-02-28T03:13:09;22.25;;;17.30;;
2544;SDS011;36212;48.838;9.142;2024-02-28T03:15:41;20.83;;;17.80;;
2544;SDS011;36212;48.838;9.142;2024-02-28T03:18:14;23.83;;;18.85;;
2544;SDS011;36212;48.838;9.142;2024-02-28T03:20:46;21.63;;;19.30;;
2544;SDS011;36212;48.838;9.142;2024-02-28T03:23:19;20.20;;;17.33;;
2544;SDS011;36212;48.838;9.142;2024-02-28T03:25:51;22.88;;;17.98;;
2544;SDS011;36212;48.838;9.142;2024-02-28T03:28:23;20.13;;;17.23;;
2544;SDS011;36212;48.838;9.142;2024-02-28T03:30:55;23.58;;;20.90;;
2544;SDS011;36212;48.838;9.142;2024-02-28T03:33:28;22.65;;;19.05;;
2544;SDS011;36212;48.838;9.142;2024-02-28T03:36:05;22.77;;;19.02;;
2544;SDS011;36212;48.838;9.142;2024-02-28T03:38:37;22.85;;;18.70;;
2544;SDS011;36212;48.838;9.142;2024-02-28T03:41:09;23.50;;;19.05;;
2544;SDS011;36212;48.838;9.142;2024-02-28T03:43:42;22.45;;;19.13;;
2544;SDS011;36212;48.838;9.142;2024-02-28T03:46:14;21.60;;;19.30;;
2544;SDS011;36212;48.838;9.142;2024-02-28T03:48:46;23.27;;;19.00;;
2544;SDS011;36212;48.838;9.142;2024-02-28T03:51:19;23.00;;;19.52;;
2544;SDS011;36212;48.838;9.142;2024-02-28T03:53:51;26.30;;;20.10;;
2544;SDS011;36212;48.838;9.142;2024-02-28T03:56:24;24.70;;;19.77;;
2544;SDS011;36212;48.838;9.142;2024-02-28T03:58:57;20.92;;;17.45;;
2544;SDS011;36212;48.838;9.142;2024-02-28T04:01:30;22.00;;;19.02;;
2544;SDS011;36212;48.838;9.142;2024-02-28T04:04:02;20.90;;;18.38;;
2544;SDS011;36212;48.838;9.142;2024-02-28T04:06:35;21.77;;;18.98;;
2544;SDS011;36212;48.838;9.142;2024-02-28T04:09:07;22.65;;;18.88;;
2544;SDS011;36212;48.838;9.142;2024-02-28T04:11:40;21.17;;;16.95;;
2544;SDS011;36212;48.838;9.142;2024-02-28T04:14:14;20.88;;;17.90;;
2544;SDS011;36212;48.838;9.142;2024-02-28T04:16:46;20.33;;;17.88;;
2544;SDS011;36212;48.838;9.142;2024-02-28T04:19:21;20.50;;;18.10;;
2544;SDS011;36212;48.838;9.142;2024-02-28T04:21:54;24.70;;;19.60;;
2544;SDS011;36212;48.838;9.142;2024-02-28T04:24:26;22.50;;;18.70;;
2544;SDS011;36212;48.838;9.142;2024-02-28T04:26:58;20.35;;;18.15;;
2544;SDS011;36212;48.838;9.142;2024-02-28T04:29:33;24.42;;;19.85;;
2544;SDS011;36212;48.838;9.142;2024-02-28T04:32:05;24.17;;;18.50;;
2544;SDS011;36212;48.838;9.142;2024-02-28T04:34:38;20.58;;;18.38;;
2544;SDS011;36212;48.838;9.142;2024-02-28T04:37:10;21.75;;;19.48;;
2544;SDS011;36212;48.838;9.142;2024-02-28T04:39:43;24.63;;;19.27;;
2544;SDS011;36212;48.838;9.142;2024-02-28T04:42:15;22.42;;;18.17;;
2544;SDS011;36212;48.838;9.142;2024-02-28T04:44:48;20.92;;;18.65;;
2544;SDS011;36212;48.838;9.142;2024-02-28T04:47:20;24.55;;;20.88;;
2544;SDS011;36212;48.838;9.142;2024-02-28T04:50:04;21.77;;;19.50;;
2544;SDS011;36212;48.838;9.142;2024-02-28T04:52:37;22.80;;;18.73;;
2544;SDS011;36212;48.838;9.142;2024-02-28T04:55:10;27.05;;;20.52;;
2544;SDS011;36212;48.838;9.142;2024-02-28T04:57:42;22.45;;;19.60;;
2544;SDS011;36212;48.838;9.142;2024-02-28T05:00:15;23.92;;;20.38;;
2544;SDS011;36212;48.838;9.142;2024-02-28T05:02:48;25.38;;;20.02;;
2544;SDS011;36212;48.838;9.142;2024-02-28T05:05:20;23.80;;;21.33;;
2544;SDS011;36212;48.838;9.142;2024-02-28T05:07:52;24.77;;;19.98;;
2544;SDS011;36212;48.838;9.142;2024-02-28T05:10:24;24.13;;;20.38;;
2544;SDS011;36212;48.838;9.142;2024-02-28T05:12:57;24.52;;;20.67;;
2544;SDS011;36212;48.838;9.142;2024-02-28T05:15:29;22.80;;;19.90;;
2544;SDS011;36212;48.838;9.142;2024-02-28T05:18:02;21.77;;;18.88;;
2544;SDS011;36212;48.838;9.142;2024-02-28T05:20:34;24.83;;;22.20;;
2544;SDS011;36212;48.838;9.142;2024-02-28T05:23:07;22.92;;;20.38;;
2544;SDS011;36212;48.838;9.142;2024-02-28T05:25:39;24.55;;;20.10;;
2544;SDS011;36212;48.838;9.142;2024-02-28T05:28:12;26.48;;;20.90;;
2544;SDS011;36212;48.838;9.142;2024-02-28T05:30:44;28.52;;;22.52;;
2544;SDS011;36212;48.838;9.142;2024-02-28T05:33:21;24.45;;;20.48;;
2544;SDS011;36212;48.838;9.142;2024-02-28T05:35:53;23.80;;;20.23;;
2544;SDS011;36212;48.838;9.142;2024-02-28T05:38:26;23.13;;;18.48;;
2544;SDS011;36212;48.838;9.142;2024-02-28T05:40:58;24.55;;;20.42;;
2544;SDS011;36212;48.838;9.142;2024-02-28T05:43:30;23.10;;;20.63;;
2544;SDS011;36212;48.838;9.142;2024-02-28T05:46:03;25.20;;;21.92;;
2544;SDS011;36212;48.838;9.142;2024-02-28T05:48:35;28.05;;;21.13;;
2544;SDS011;36212;48.838;9.142;2024-02-28T05:51:07;24.33;;;21.55;;
2544;SDS011;36212;48.838;9.142;2024-02-28T05:53:41;25.40;;;21.67;;
2544;SDS011;36212;48.838;9.142;2024-02-28T05:56:14;26.17;;;21.63;;
2544;SDS011;36212;48.838;9.142;2024-02-28T05:58:49;30.58;;;22.20;;
2544;SDS011;36212;48.838;9.142;2024-02-28T06:01:22;24.58;;;21.08;;
2544;SDS011;36212;48.838;9.142;2024-02-28T06:03:54;25.48;;;21.73;;
2544;SDS011;36212;48.838;9.142;2024-02-28T06:06:26;27.63;;;24.35;;
2544;SDS011;36212;48.838;9.142;2024-02-28T06:08:59;27.08;;;20.83;;
2544;SDS011;36212;48.838;9.142;2024-02-28T06:11:31;26.10;;;22.45;;
2544;SDS011;36212;48.838;9.142;2024-02-28T06:14:05;25.73;;;21.35;;
2544;SDS011;36212;48.838;9.142;2024-02-28T06:16:39;27.98;;;22.15;;
2544;SDS011;36212;48.838;9.142;2024-02-28T06:19:11;26.38;;;22.58;;
2544;SDS011;36212;48.838;9.142;2024-02-28T06:21:43;26.23;;;22.35;;
2544;SDS011;36212;48.838;9.142;2024-02-28T06:24:15;28.15;;;24.70;;
2544;SDS011;36212;48.838;9.142;2024-02-28T06:26:48;29.35;;;23.73;;
2544;SDS011;36212;48.838;9.142;2024-02-28T06:29:23;27.05;;;20.90;;
2544;SDS011;36212;48.838;9.142;2024-02-28T06:31:56;27.98;;;22.13;;
2544;SDS011;36212;48.838;9.142;2024-02-28T06:34:28;24.95;;;22.23;;
2544;SDS011;36212;48.838;9.142;2024-02-28T06:37:01;27.92;;;22.50;;
2544;SDS011;36212;48.838;9.142;2024-02-28T06:39:33;26.98;;;21.42;;
2544;SDS011;36212;48.838;9.142;2024-02-28T06:42:06;26.10;;;21.27;;
2544;SDS011;36212;48.838;9.142;2024-02-28T06:44:39;28.70;;;21.33;;
2544;SDS011;36212;48.838;9.142;2024-02-28T06:47:12;26.17;;;21.55;;
2544;SDS011;36212;48.838;9.142;2024-02-28T06:49:44;25.80;;;20.70;;
2544;SDS011;36212;48.838;9.142;2024-02-28T06:52:16;25.65;;;22.02;;
2544;SDS011;36212;48.838;9.142;2024-02-28T06:54:48;26.25;;;21.52;;
2544;SDS011;36212;48.838;9.142;2024-02-28T06:57:21;30.92;;;23.50;;
2544;SDS011;36212;48.838;9.142;2024-02-28T06:59:54;27.13;;;21.10;;
2544;SDS011;36212;48.838;9.142;2024-02-28T07:02:26;30.73;;;25.15;;
2544;SDS011;36212;48.838;9.142;2024-02-28T07:04:58;28.02;;;22.20;;
2544;SDS011;36212;48.838;9.142;2024-02-28T07:07:31;26.77;;;22.05;;
2544;SDS011;36212;48.838;9.142;2024-02-28T07:10:03;26.27;;;23.52;;
2544;SDS011;36212;48.838;9.142;2024-02-28T07:12:37;29.55;;;22.98;;
2544;SDS011;36212;48.838;9.142;2024-02-28T07:15:09;31.85;;;23.38;;
2544;SDS011;36212;48.838;9.142;2024-02-28T07:17:42;26.20;;;22.80;;
2544;SDS011;36212;48.838;9.142;2024-02-28T07:20:16;25.20;;;21.85;;
2544;SDS011;36212;48.838;9.142;2024-02-28T07:22:48;26.27;;;21.73;;
2544;SDS011;36212;48.838;9.142;2024-02-28T07:25:20;27.42;;;23.17;;
2544;SDS011;36212;48.838;9.142;2024-02-28T07:27:56;29.05;;;22.80;;
2544;SDS011;36212;48.838;9.142;2024-02-28T07:30:30;24.85;;;20.92;;
2544;SDS011;36212;48.838;9.142;2024-02-28T07:33:04;26.58;;;21.30;;
2544;SDS011;36212;48.838;9.142;2024-02-28T07:35:44;24.75;;;21.23;;
2544;SDS011;36212;48.838;9.142;2024-02-28T07:38:22;28.38;;;23.52;;
2544;SDS011;36212;48.838;9.142;2024-02-28T07:40:59;29.75;;;22.58;;
2544;SDS011;36212;48.838;9.142;2024-02-28T07:43:31;29.70;;;23.58;;
2544;SDS011;36212;48.838;9.142;2024-02-28T07:46:12;28.10;;;21.20;;
2544;SDS011;36212;48.838;9.142;2024-02-28T07:48:44;24.35;;;21.25;;
2544;SDS011;36212;48.838;9.142;2024-02-28T07:51:17;25.65;;;22.70;;
2544;SDS011;36212;48.838;9.142;2024-02-28T07:53:49;27.92;;;22.73;;
2544;SDS011;36212;48.838;9.142;2024-02-28T07:56:21;28.95;;;20.92;;
2544;SDS011;36212;48.838;9.142;2024-02-28T07:58:54;26.50;;;21.02;;
2544;SDS011;36212;48.838;9.142;2024-02-28T08:01:26;26.58;;;21.65;;
2544;SDS011;36212;48.838;9.142;2024-02-28T08:03:59;25.85;;;21.98;;
2544;SDS011;36212;48.838;9.142;2024-02-28T08:06:32;27.02;;;22.42;;
2544;SDS011;36212;48.838;9.142;2024-02-28T08:09:05;26.63;;;22.27;;
2544;SDS011;36212;48.838;9.142;2024-02-28T08:11:41;31.65;;;21.70;;
2544;SDS011;36212;48.838;9.142;2024-02-28T08:14:14;26.67;;;21.33;;
2544;SDS011;36212;48.838;9.142;2024-02-28T08:16:46;29.13;;;22.27;;
2544;SDS011;36212;48.838;9.142;2024-02-28T08:19:19;25.10;;;19.33;;
2544;SDS011;36212;48.838;9.142;2024-02-28T08:21:51;26.42;;;21.50;;
2544;SDS011;36212;48.838;9.142;2024-02-28T08:24:24;27.90;;;22.70;;
2544;SDS011;36212;48.838;9.142;2024-02-28T08:26:56;27.75;;;23.77;;
2544;SDS011;36212;48.838;9.142;2024-02-28T08:29:28;25.10;;;22.00;;
2544;SDS011;36212;48.838;9.142;2024-02-28T08:32:03;28.92;;;22.30;;
2544;SDS011;36212;48.838;9.142;2024-02-28T08:34:35;33.63;;;24.90;;
2544;SDS011;36212;48.838;9.142;2024-02-28T08:37:08;27.00;;;22.77;;
2544;SDS011;36212;48.838;9.142;2024-02-28T08:39:41;25.55;;;21.00;;
2544;SDS011;36212;48.838;9.142;2024-02-28T08:42:13;30.10;;;22.33;;
2544;SDS011;36212;48.838;9.142;2024-02-28T08:44:46;26.25;;;22.50;;
2544;SDS011;36212;48.838;9.142;2024-02-28T08:47:23;27.85;;;22.58;;
2544;SDS011;36212;48.838;9.142;2024-02-28T08:49:56;26.60;;;21.67;;
2544;SDS011;36212;48.838;9.142;2024-02-28T08:52:29;30.33;;;22.38;;
2544;SDS011;36212;48.838;9.142;2024-02-28T08:55:01;28.42;;;22.35;;
2544;SDS011;36212;48.838;9.142;2024-02-28T08:57:35;27.35;;;21.48;;
2544;SDS011;36212;48.838;9.142;2024-02-28T09:00:07;24.77;;;20.52;;
2544;SDS011;36212;48.838;9.142;2024-02-28T09:02:41;25.85;;;20.27;;
2544;SDS011;36212;48.838;9.142;2024-02-28T09:05:14;23.25;;;19.67;;
2544;SDS011;36212;48.838;9.142;2024-02-28T09:07:47;23.95;;;21.35;;
2544;SDS011;36212;48.838;9.142;2024-02-28T09:10:25;27.33;;;21.95;;
2544;SDS011;36212;48.838;9.142;2024-02-28T09:12:57;25.40;;;20.45;;
2544;SDS011;36212;48.838;9.142;2024-02-28T09:15:30;26.63;;;22.00;;
2544;SDS011;36212;48.838;9.142;2024-02-28T09:18:03;28.75;;;21.85;;
2544;SDS011;36212;48.838;9.142;2024-02-28T09:20:37;24.45;;;21.13;;
2544;SDS011;36212;48.838;9.142;2024-02-28T09:23:09;26.90;;;21.08;;
2544;SDS011;36212;48.838;9.142;2024-02-28T09:25:42;22.42;;;19.70;;
2544;SDS011;36212;48.838;9.142;2024-02-28T09:28:14;21.38;;;17.52;;
2544;SDS011;36212;48.838;9.142;2024-02-28T09:30:48;24.50;;;21.52;;
2544;SDS011;36212;48.838;9.142;2024-02-28T09:33:24;24.70;;;21.60;;
2544;SDS011;36212;48.838;9.142;2024-02-28T09:35:56;25.33;;;21.88;;
2544;SDS011;36212;48.838;9.142;2024-02-28T09:38:31;27.52;;;20.60;;
2544;SDS011;36212;48.838;9.142;2024-02-28T09:41:06;22.42;;;18.77;;
2544;SDS011;36212;48.838;9.142;2024-02-28T09:43:44;27.27;;;21.75;;
2544;SDS011;36212;48.838;9.142;2024-02-28T09:46:18;24.80;;;20.23;;
2544;SDS011;36212;48.838;9.142;2024-02-28T09:48:51;23.45;;;20.67;;
2544;SDS011;36212;48.838;9.142;2024-02-28T09:51:26;24.50;;;21.33;;
2544;SDS011;36212;48.838;9.142;2024-02-28T09:54:04;23.65;;;20.40;;
2544;SDS011;36212;48.838;9.142;2024-02-28T09:56:37;25.25;;;20.05;;
2544;SDS011;36212;48.838;9.142;2024-02-28T09:59:10;25.52;;;21.00;;
2544;SDS011;36212;48.838;9.142;2024-02-28T10:01:47;24.65;;;19.30;;
2544;SDS011;36212;48.838;9.142;2024-02-28T10:04:42;27.10;;;20.52;;
2544;SDS011;36212;48.838;9.142;2024-02-28T10:07:15;21.90;;;19.35;;
2544;SDS011;36212;48.838;9.142;2024-02-28T10:09:48;22.38;;;19.98;;
2544;SDS011;36212;48.838;9.142;2024-02-28T10:12:21;28.10;;;22.73;;
2544;SDS011;36212;48.838;9.142;2024-02-28T10:14:54;20.35;;;18.20;;
2544;SDS011;36212;48.838;9.142;2024-02-28T10:17:26;24.35;;;19.65;;
2544;SDS011;36212;48.838;9.142;2024-02-28T10:20:01;24.35;;;20.15;;
2544;SDS011;36212;48.838;9.142;2024-02-28T10:22:36;22.10;;;17.10;;
2544;SDS011;36212;48.838;9.142;2024-02-28T10:25:09;20.55;;;17.08;;
2544;SDS011;36212;48.838;9.142;2024-02-28T10:27:41;20.40;;;17.85;;
2544;SDS011;36212;48.838;9.142;2024-02-28T10:30:13;20.40;;;18.20;;
2544;SDS011;36212;48.838;9.142;2024-02-28T10:32:49;19.23;;;15.60;;
2544;SDS011;36212;48.838;9.142;2024-02-28T10:35:22;17.40;;;15.55;;
2544;SDS011;36212;48.838;9.142;2024-02-28T10:37:57;16.67;;;13.88;;
2544;SDS011;36212;48.838;9.142;2024-02-28T10:40:30;19.42;;;15.38;;
2544;SDS011;36212;48.838;9.142;2024-02-28T10:43:03;18.25;;;14.55;;
2544;SDS011;36212;48.838;9.142;2024-02-28T10:45:39;19.35;;;16.27;;
2544;SDS011;36212;48.838;9.142;2024-02-28T10:48:31;18.67;;;16.52;;
2544;SDS011;36212;48.838;9.142;2024-02-28T10:51:04;17.92;;;15.32;;
2544;SDS011;36212;48.838;9.142;2024-02-28T10:53:38;19.38;;;15.85;;
2544;SDS011;36212;48.838;9.142;2024-02-28T10:56:17;18.05;;;15.70;;
2544;SDS011;36212;48.838;9.142;2024-02-28T10:58:51;16.65;;;14.93;;
2544;SDS011;36212;48.838;9.142;2024-02-28T11:01:27;16.80;;;14.98;;
2544;SDS011;36212;48.838;9.142;2024-02-28T11:03:59;20.33;;;17.95;;
2544;SDS011;36212;48.838;9.142;2024-02-28T11:06:33;21.25;;;16.10;;
2544;SDS011;36212;48.838;9.142;2024-02-28T11:09:07;20.15;;;17.17;;
2544;SDS011;36212;48.838;9.142;2024-02-28T11:11:52;18.63;;;16.35;;
2544;SDS011;36212;48.838;9.142;2024-02-28T11:14:25;21.15;;;18.27;;
2544;SDS011;36212;48.838;9.142;2024-02-28T11:17:03;21.10;;;18.27;;
2544;SDS011;36212;48.838;9.142;2024-02-28T11:19:37;22.30;;;17.98;;
2544;SDS011;36212;48.838;9.142;2024-02-28T11:22:09;19.35;;;17.02;;
2544;SDS011;36212;48.838;9.142;2024-02-28T11:24:48;19.70;;;16.95;;
2544;SDS011;36212;48.838;9.142;2024-02-28T11:27:24;19.90;;;17.77;;
2544;SDS011;36212;48.838;9.142;2024-02-28T11:29:57;19.63;;;17.50;;
2544;SDS011;36212;48.838;9.142;2024-02-28T11:32:32;20.55;;;17.75;;
2544;SDS011;36212;48.838;9.142;2024-02-28T11:35:05;21.65;;;18.73;;
2544;SDS011;36212;48.838;9.142;2024-02-28T11:37:38;24.30;;;18.08;;
2544;SDS011;36212;48.838;9.142;2024-02-28T11:40:11;20.88;;;16.42;;
2544;SDS011;36212;48.838;9.142;2024-02-28T11:42:45;25.08;;;19.15;;
2544;SDS011;36212;48.838;9.142;2024-02-28T11:45:19;21.35;;;18.42;;
2544;SDS011;36212;48.838;9.142;2024-02-28T11:47:52;20.95;;;17.98;;
2544;SDS011;36212;48.838;9.142;2024-02-28T11:50:24;20.40;;;17.05;;
2544;SDS011;36212;48.838;9.142;2024-02-28T11:53:00;22.33;;;17.77;;
2544;SDS011;36212;48.838;9.142;2024-02-28T11:55:36;21.15;;;17.58;;
2544;SDS011;36212;48.838;9.142;2024-02-28T11:58:12;20.00;;;17.85;;
2544;SDS011;36212;48.838;9.142;2024-02-28T12:00:51;21.98;;;17.73;;
2544;SDS011;36212;48.838;9.142;2024-02-28T12:03:25;19.67;;;16.63;;
2544;SDS011;36212;48.838;9.142;2024-02-28T12:05:59;23.15;;;18.02;;
2544;SDS011;36212;48.838;9.142;2024-02-28T12:08:32;20.67;;;17.02;;
2544;SDS011;36212;48.838;9.142;2024-02-28T12:11:08;19.15;;;15.77;;
2544;SDS011;36212;48.838;9.142;2024-02-28T12:13:43;20.85;;;18.33;;
2544;SDS011;36212;48.838;9.142;2024-02-28T12:16:24;21.40;;;17.63;;
2544;SDS011;36212;48.838;9.142;2024-02-28T12:18:57;20.48;;;18.35;;
2544;SDS011;36212;48.838;9.142;2024-02-28T12:21:33;20.83;;;18.63;;
2544;SDS011;36212;48.838;9.142;2024-02-28T12:24:08;20.15;;;16.45;;
2544;SDS011;36212;48.838;9.142;2024-02-28T12:26:41;20.50;;;16.58;;
2544;SDS011;36212;48.838;9.142;2024-02-28T12:29:13;18.73;;;15.90;;
2544;SDS011;36212;48.838;9.142;2024-02-28T12:31:46;18.33;;;15.98;;
2544;SDS011;36212;48.838;9.142;2024-02-28T12:34:19;18.88;;;16.67;;
2544;SDS011;36212;48.838;9.142;2024-02-28T12:36:52;18.80;;;16.77;;
2544;SDS011;36212;48.838;9.142;2024-02-28T12:39:26;21.02;;;17.70;;
2544;SDS011;36212;48.838;9.142;2024-02-28T12:41:58;20.60;;;15.90;;
2544;SDS011;36212;48.838;9.142;2024-02-28T12:44:31;21.70;;;17.80;;
2544;SDS011;36212;48.838;9.142;2024-02-28T12:47:03;21.35;;;17.35;;
2544;SDS011;36212;48.838;9.142;2024-02-28T12:49:36;21.10;;;18.30;;
2544;SDS011;36212;48.838;9.142;2024-02-28T12:52:08;21.77;;;18.40;;
2544;SDS011;36212;48.838;9.142;2024-02-28T12:54:41;30.20;;;18.40;;
2544;SDS011;36212;48.838;9.142;2024-02-28T12:57:13;21.35;;;17.02;;
2544;SDS011;36212;48.838;9.142;2024-02-28T12:59:49;22.35;;;18.38;;
2544;SDS011;36212;48.838;9.142;2024-02-28T13:02:22;22.05;;;17.60;;
2544;SDS011;36212;48.838;9.142;2024-02-28T13:04:55;20.70;;;16.70;;
2544;SDS011;36212;48.838;9.142;2024-02-28T13:07:28;21.15;;;18.75;;
2544;SDS011;36212;48.838;9.142;2024-02-28T13:10:01;20.42;;;16.90;;
2544;SDS011;36212;48.838;9.142;2024-02-28T13:12:37;27.70;;;18.75;;
2544;SDS011;36212;48.838;9.142;2024-02-28T13:15:10;19.50;;;16.10;;
2544;SDS011;36212;48.838;9.142;2024-02-28T13:17:43;21.70;;;17.42;;
2544;SDS011;36212;48.838;9.142;2024-02-28T13:20:19;20.80;;;17.17;;
2544;SDS011;36212;48.838;9.142;2024-02-28T13:22:52;20.92;;;16.80;;
2544;SDS011;36212;48.838;9.142;2024-02-28T13:25:25;19.27;;;17.13;;
2544;SDS011;36212;48.838;9.142;2024-02-28T13:27:58;20.60;;;17.17;;
2544;SDS011;36212;48.838;9.142;2024-02-28T13:30:31;19.98;;;17.08;;
2544;SDS011;36212;48.838;9.142;2024-02-28T13:33:07;22.20;;;17.05;;
2544;SDS011;36212;48.838;9.142;2024-02-28T13:35:40;21.38;;;17.52;;
2544;SDS011;36212;48.838;9.142;2024-02-28T13:38:14;22.90;;;18.15;;
2544;SDS011;36212;48.838;9.142;2024-02-28T13:40:48;28.85;;;18.92;;
2544;SDS011;36212;48.838;9.142;2024-02-28T13:43:21;19.88;;;16.70;;
2544;SDS011;36212;48.838;9.142;2024-02-28T13:45:54;21.20;;;17.13;;
2544;SDS011;36212;48.838;9.142;2024-02-28T13:48:32;23.27;;;17.40;;
2544;SDS011;36212;48.838;9.142;2024-02-28T13:51:06;20.83;;;17.48;;
2544;SDS011;36212;48.838;9.142;2024-02-28T13:53:38;23.08;;;17.20;;
2544;SDS011;36212;48.838;9.142;2024-02-28T13:56:11;22.88;;;18.35;;
2544;SDS011;36212;48.838;9.142;2024-02-28T13:58:43;21.77;;;18.25;;
2544;SDS011;36212;48.838;9.142;2024-02-28T14:01:24;23.55;;;18.55;;
2544;SDS011;36212;48.838;9.142;2024-02-28T14:03:58;20.08;;;16.75;;
2544;SDS011;36212;48.838;9.142;2024-02-28T14:06:31;20.65;;;16.95;;
2544;SDS011;36212;48.838;9.142;2024-02-28T14:09:05;23.48;;;18.40;;
2544;SDS011;36212;48.838;9.142;2024-02-28T14:11:37;20.80;;;17.15;;
2544;SDS011;36212;48.838;9.142;2024-02-28T14:14:10;22.10;;;18.48;;
2544;SDS011;36212;48.838;9.142;2024-02-28T14:16:43;21.65;;;17.10;;
2544;SDS011;36212;48.838;9.142;2024-02-28T14:19:16;21.90;;;16.92;;
2544;SDS011;36212;48.838;9.142;2024-02-28T14:21:49;22.42;;;18.05;;
2544;SDS011;36212;48.838;9.142;2024-02-28T14:24:22;20.65;;;17.30;;
2544;SDS011;36212;48.838;9.142;2024-02-28T14:26:55;21.13;;;18.05;;
2544;SDS011;36212;48.838;9.142;2024-02-28T14:29:28;21.63;;;17.88;;
2544;SDS011;36212;48.838;9.142;2024-02-28T14:32:01;20.52;;;17.00;;
2544;SDS011;36212;48.838;9.142;2024-02-28T14:34:35;20.67;;;16.88;;
2544;SDS011;36212;48.838;9.142;2024-02-28T14:37:08;21.00;;;17.83;;
2544;SDS011;36212;48.838;9.142;2024-02-28T14:39:41;27.00;;;19.25;;
2544;SDS011;36212;48.838;9.142;2024-02-28T14:42:13;20.80;;;16.83;;
2544;SDS011;36212;48.838;9.142;2024-02-28T14:44:46;23.92;;;18.20;;
2544;SDS011;36212;48.838;9.142;2024-02-28T14:47:19;21.38;;;16.85;;
2544;SDS011;36212;48.838;9.142;2024-02-28T14:49:52;22.80;;;16.77;;
2544;SDS011;36212;48.838;9.142;2024-02-28T14:52:25;22.60;;;17.70;;
2544;SDS011;36212;48.838;9.142;2024-02-28T14:54:58;22.02;;;17.40;;
2544;SDS011;36212;48.838;9.142;2024-02-28T14:57:32;24.20;;;17.13;;
2544;SDS011;36212;48.838;9.142;2024-02-28T15:00:06;21.55;;;18.40;;
2544;SDS011;36212;48.838;9.142;2024-02-28T15:02:44;20.48;;;17.38;;
2544;SDS011;36212;48.838;9.142;2024-02-28T15:05:17;22.17;;;16.90;;
2544;SDS011;36212;48.838;9.142;2024-02-28T15:07:50;22.05;;;17.08;;
2544;SDS011;36212;48.838;9.142;2024-02-28T15:10:22;21.67;;;17.92;;